Time;durP1;ratioP1;P1;durP2;ratioP2;P2;SDS_P1;SDS_P2;PMS_P1;PMS_P2;Temp;Humidity;BMP_temperature;BMP_pressure;BME280_temperature;BME280_humidity;BME280_pressure;Samples;Min_cycle;Max_cycle;Signal;HPM_P1;HPM_P2
2023/05/04 00:02:25;;;;;;;5.38;2.97;;;13.30;71.90;;;;;;5057159;28;20040;-62
2023/05/04 00:04:52;;;;;;;4.15;2.88;;;13.30;71.90;;;;;;5056904;28;20476;-62
2023/05/04 00:07:18;;;;;;;4.00;2.53;;;13.40;71.90;;;;;;5057158;28;20065;-62
2023/05/04 00:09:45;;;;;;;4.75;3.00;;;13.30;71.90;;;;;;5056915;28;20048;-62
2023/05/04 00:12:10;;;;;;;5.10;3.13;;;13.40;71.90;;;;;;5057305;28;20029;-62
2023/05/04 00:14:37;;;;;;;4.05;2.72;;;13.40;71.90;;;;;;5057343;28;20426;-62
2023/05/04 00:17:05;;;;;;;3.92;2.80;;;13.40;71.90;;;;;;5057030;28;20171;-62
2023/05/04 00:19:34;;;;;;;5.13;3.08;;;13.40;71.90;;;;;;5056929;28;20025;-62
2023/05/04 00:22:01;;;;;;;3.78;2.90;;;13.40;71.80;;;;;;5056549;28;20083;-62
2023/05/04 00:24:28;;;;;;;5.20;2.83;;;13.40;72.10;;;;;;5056570;28;20036;-62
2023/05/04 00:26:54;;;;;;;4.80;2.97;;;13.50;72.10;;;;;;5056825;28;20104;-62
2023/05/04 00:29:20;;;;;;;5.40;3.35;;;13.40;72.20;;;;;;5056461;28;20453;-62
2023/05/04 00:31:46;;;;;;;4.82;3.05;;;13.40;72.40;;;;;;5056425;28;20025;-62
2023/05/04 00:34:12;;;;;;;4.38;3.00;;;13.40;72.40;;;;;;5056365;28;20362;-62
2023/05/04 00:36:38;;;;;;;5.22;3.05;;;13.40;72.30;;;;;;5056645;28;20021;-62
2023/05/04 00:39:04;;;;;;;5.28;3.22;;;13.40;72.40;;;;;;5056316;28;20103;-62
2023/05/04 00:41:30;;;;;;;6.28;3.00;;;13.40;72.60;;;;;;5056525;28;20419;-62
2023/05/04 00:43:58;;;;;;;4.95;2.70;;;13.40;72.60;;;;;;5056198;28;20071;-62
2023/05/04 00:46:25;;;;;;;3.67;2.65;;;13.40;73.00;;;;;;5056097;28;20029;-62
2023/05/04 00:48:52;;;;;;;3.97;2.15;;;13.40;72.90;;;;;;5056077;28;20070;-62
2023/05/04 00:51:20;;;;;;;5.45;2.75;;;13.40;72.80;;;;;;5055287;28;20438;-62
2023/05/04 00:53:47;;;;;;;3.38;2.60;;;13.40;72.70;;;;;;5055745;28;20063;-62
2023/05/04 00:56:14;;;;;;;2.95;2.33;;;13.40;72.70;;;;;;5056311;28;20054;-62
2023/05/04 00:58:40;;;;;;;3.28;2.33;;;13.40;72.70;;;;;;5055582;28;20029;-62
2023/05/04 01:01:07;;;;;;;4.55;2.47;;;13.30;72.70;;;;;;5055489;28;20032;-62
2023/05/04 01:03:33;;;;;;;3.97;2.53;;;13.30;72.90;;;;;;5056094;28;20029;-62
2023/05/04 01:06:29;;;;;;;6.18;2.70;;;13.20;73.10;;;;;;5055745;28;20025;-62
2023/05/04 01:09:06;;;;;;;3.45;2.38;;;13.20;72.90;;;;;;5071458;28;20025;-62
2023/05/04 01:12:12;;;;;;;2.60;2.40;;;13.10;73.20;;;;;;5056168;28;20029;-62
2023/05/04 01:14:38;;;;;;;3.10;2.30;;;13.00;73.10;;;;;;5033935;28;20030;-62
2023/05/04 01:17:06;;;;;;;3.90;2.10;;;13.00;73.20;;;;;;5051922;28;20038;-62
2023/05/04 01:19:33;;;;;;;2.65;2.10;;;12.90;73.10;;;;;;5054973;28;20044;-62
2023/05/04 01:21:59;;;;;;;2.40;2.10;;;12.90;73.10;;;;;;5055969;28;20423;-62
2023/05/04 01:24:26;;;;;;;4.05;2.25;;;12.90;73.20;;;;;;5055699;28;20033;-62
2023/05/04 01:27:07;;;;;;;2.28;2.08;;;12.90;73.20;;;;;;5055729;28;20021;-62
2023/05/04 01:29:51;;;;;;;5.80;2.30;;;12.80;73.20;;;;;;5054835;28;20104;-62
2023/05/04 01:32:18;;;;;;;2.33;1.85;;;12.80;73.20;;;;;;5055917;28;20096;-62
2023/05/04 01:34:44;;;;;;;2.78;1.92;;;12.70;73.30;;;;;;5055846;28;20505;-62
2023/05/04 01:37:10;;;;;;;2.90;2.03;;;12.70;73.40;;;;;;5055838;28;20017;-62
2023/05/04 01:39:36;;;;;;;2.83;2.10;;;12.70;73.40;;;;;;5055809;28;20104;-62
2023/05/04 01:42:02;;;;;;;6.57;1.92;;;12.60;73.40;;;;;;5055451;28;20063;-62
2023/05/04 01:44:28;;;;;;;3.00;1.70;;;12.60;73.40;;;;;;5055396;28;20521;-62
2023/05/04 01:46:54;;;;;;;3.22;1.77;;;12.60;73.40;;;;;;5055209;28;20147;-62
2023/05/04 01:49:20;;;;;;;3.00;1.70;;;12.60;73.30;;;;;;5055373;28;20021;-62
2023/05/04 01:51:48;;;;;;;1.50;1.40;;;12.60;73.30;;;;;;5055393;28;20036;-62
2023/05/04 01:54:14;;;;;;;1.42;1.33;;;12.60;73.30;;;;;;5054825;28;20532;-62
2023/05/04 01:56:40;;;;;;;2.17;1.60;;;12.60;73.30;;;;;;5055293;28;20020;-62
2023/05/04 01:59:06;;;;;;;2.75;1.63;;;12.60;73.30;;;;;;5055300;28;20037;-62
2023/05/04 02:01:32;;;;;;;1.90;1.40;;;12.60;73.20;;;;;;5054963;28;20021;-62
2023/05/04 02:03:58;;;;;;;1.83;1.25;;;12.60;73.20;;;;;;5055015;28;20357;-62
2023/05/04 02:06:24;;;;;;;2.13;1.13;;;12.50;73.20;;;;;;5055548;28;20346;-62
2023/05/04 02:08:50;;;;;;;1.85;1.45;;;12.50;73.20;;;;;;5054947;28;20027;-62
2023/05/04 02:11:16;;;;;;;1.67;1.38;;;12.50;73.30;;;;;;5057041;28;20021;-62
2023/05/04 02:13:42;;;;;;;1.73;1.30;;;12.50;73.20;;;;;;5059333;28;20055;-62
2023/05/04 02:16:08;;;;;;;2.72;1.73;;;12.40;73.30;;;;;;5059309;28;20099;-62
2023/05/04 02:18:34;;;;;;;1.73;1.50;;;12.40;73.40;;;;;;5058005;28;20029;-62
2023/05/04 02:21:00;;;;;;;2.53;1.70;;;12.40;73.40;;;;;;5059083;28;20044;-62
2023/05/04 02:23:26;;;;;;;1.58;1.20;;;12.40;73.40;;;;;;5058857;28;20028;-62
2023/05/04 02:25:53;;;;;;;2.10;1.75;;;12.30;73.40;;;;;;5058786;28;20025;-62
2023/05/04 02:28:20;;;;;;;2.67;1.35;;;12.30;73.40;;;;;;5058723;28;20533;-62
2023/05/04 02:30:45;;;;;;;2.40;1.48;;;12.30;73.40;;;;;;5059431;28;20048;-62
2023/05/04 02:33:11;;;;;;;2.03;1.50;;;12.20;73.40;;;;;;5059214;28;20029;-62
2023/05/04 02:35:37;;;;;;;2.20;1.98;;;12.20;73.50;;;;;;5058652;28;20024;-62
2023/05/04 02:38:04;;;;;;;1.98;1.70;;;12.20;73.60;;;;;;5058606;28;20522;-62
2023/05/04 02:40:31;;;;;;;1.85;1.67;;;12.20;73.70;;;;;;5059031;28;20381;-62
2023/05/04 02:42:56;;;;;;;2.40;1.70;;;12.10;73.70;;;;;;5058671;28;20063;-62
2023/05/04 02:45:22;;;;;;;3.08;1.88;;;12.10;73.60;;;;;;5058440;28;20053;-62
2023/05/04 02:47:48;;;;;;;3.58;2.30;;;12.10;73.70;;;;;;5058962;28;20044;-62
2023/05/04 02:50:14;;;;;;;2.83;2.03;;;12.10;73.80;;;;;;5058918;28;20316;-62
2023/05/04 02:52:40;;;;;;;3.40;2.42;;;12.00;73.80;;;;;;5058515;28;20025;-62
2023/05/04 02:55:06;;;;;;;3.10;2.17;;;11.90;74.00;;;;;;5058056;28;20059;-62
2023/05/04 02:57:32;;;;;;;4.22;2.45;;;11.90;73.90;;;;;;5058517;28;20032;-62
2023/05/04 02:59:58;;;;;;;4.63;2.78;;;11.90;73.90;;;;;;5057227;28;20025;-62
2023/05/04 03:02:24;;;;;;;5.70;2.53;;;11.90;74.00;;;;;;5058182;28;20029;-62
2023/05/04 03:04:50;;;;;;;5.43;2.92;;;11.80;73.90;;;;;;5073732;28;20462;-62
2023/05/04 03:07:16;;;;;;;4.53;3.03;;;11.80;74.00;;;;;;5058103;28;20060;-62
2023/05/04 03:09:42;;;;;;;11.90;3.00;;;11.70;74.10;;;;;;5058052;28;20482;-62
2023/05/04 03:12:08;;;;;;;6.28;2.92;;;11.70;74.10;;;;;;5058150;28;20021;-62
2023/05/04 03:14:34;;;;;;;9.73;3.00;;;11.70;74.20;;;;;;5058186;28;20025;-62
2023/05/04 03:17:00;;;;;;;4.93;3.08;;;11.70;74.30;;;;;;5057870;28;20349;-62
2023/05/04 03:19:26;;;;;;;3.10;2.40;;;11.70;74.30;;;;;;5057819;28;20033;-62
2023/05/04 03:21:52;;;;;;;4.03;2.55;;;11.70;74.20;;;;;;5057202;28;20029;-62
2023/05/04 03:24:18;;;;;;;3.25;2.40;;;11.70;74.30;;;;;;5057716;28;20052;-62
2023/05/04 03:26:44;;;;;;;3.47;2.55;;;11.70;74.30;;;;;;5057697;28;20063;-62
2023/05/04 03:29:10;;;;;;;4.88;2.63;;;11.60;74.20;;;;;;5057659;28;20060;-62
2023/05/04 03:31:36;;;;;;;3.85;2.50;;;11.70;74.30;;;;;;5057515;28;20029;-62
2023/05/04 03:34:02;;;;;;;7.18;2.95;;;11.60;74.20;;;;;;5057562;28;20040;-62
2023/05/04 03:36:28;;;;;;;4.82;2.92;;;11.60;74.10;;;;;;5057806;28;20108;-62
2023/05/04 03:38:55;;;;;;;4.38;2.63;;;11.60;74.20;;;;;;5057443;28;20433;-62
2023/05/04 03:41:21;;;;;;;3.63;2.75;;;11.50;74.20;;;;;;5057343;28;20078;-62
2023/05/04 03:43:46;;;;;;;4.90;3.28;;;11.40;74.30;;;;;;5057411;28;20017;-62
2023/05/04 03:46:12;;;;;;;4.80;3.00;;;11.40;74.60;;;;;;5057228;28;20021;-62
2023/05/04 03:48:39;;;;;;;4.63;2.75;;;11.40;74.50;;;;;;5057578;28;20021;-62
2023/05/04 03:51:05;;;;;;;3.13;2.65;;;11.40;74.60;;;;;;5057439;28;20029;-62
2023/05/04 03:53:34;;;;;;;4.20;2.67;;;11.30;74.60;;;;;;5056332;28;20407;-62
2023/05/04 03:56:01;;;;;;;4.00;2.63;;;11.30;74.70;;;;;;5057996;28;20330;-62
2023/05/04 03:58:27;;;;;;;2.65;2.40;;;11.30;74.80;;;;;;5057176;28;20032;-62
2023/05/04 04:00:53;;;;;;;3.28;2.40;;;11.30;74.70;;;;;;5057502;28;20028;-62
2023/05/04 04:03:19;;;;;;;3.72;3.05;;;11.30;74.70;;;;;;5057565;28;20025;-62
2023/05/04 04:05:45;;;;;;;3.65;2.63;;;11.30;74.70;;;;;;5057174;28;20067;-62
2023/05/04 04:08:12;;;;;;;3.00;2.30;;;11.30;74.70;;;;;;5056994;28;20120;-62
2023/05/04 04:10:38;;;;;;;3.22;2.03;;;11.30;74.70;;;;;;5057131;28;20083;-62
2023/05/04 04:13:04;;;;;;;4.15;2.20;;;11.30;74.80;;;;;;5056743;28;20017;-62
2023/05/04 04:15:30;;;;;;;3.63;2.50;;;11.30;74.80;;;;;;5057059;28;20169;-62
2023/05/04 04:17:56;;;;;;;3.90;2.42;;;11.30;74.80;;;;;;5057023;28;20572;-62
2023/05/04 04:20:22;;;;;;;3.33;2.42;;;11.30;74.70;;;;;;5057247;28;20048;-62
2023/05/04 04:22:48;;;;;;;3.42;2.42;;;11.30;74.70;;;;;;5056828;28;20029;-62
2023/05/04 04:25:14;;;;;;;5.32;2.30;;;11.30;74.80;;;;;;5055563;28;20040;-62
2023/05/04 04:27:40;;;;;;;2.58;2.10;;;11.40;74.70;;;;;;5056583;28;20016;-62
2023/05/04 04:30:07;;;;;;;2.25;1.95;;;11.40;74.70;;;;;;5056737;28;20064;-62
2023/05/04 04:32:34;;;;;;;2.50;2.25;;;11.40;74.70;;;;;;5056678;28;20032;-62
2023/05/04 04:35:00;;;;;;;5.68;2.60;;;11.50;74.70;;;;;;5055608;28;20029;-62
2023/05/04 04:37:25;;;;;;;3.10;2.42;;;11.60;74.60;;;;;;5056593;28;20029;-62
2023/05/04 04:39:52;;;;;;;3.00;2.58;;;11.70;74.50;;;;;;5056617;28;20059;-62
2023/05/04 04:42:17;;;;;;;2.88;2.35;;;11.70;74.60;;;;;;5056914;28;20040;-62
2023/05/04 04:44:44;;;;;;;3.95;2.33;;;11.80;74.60;;;;;;5056193;28;20036;-62
2023/05/04 04:47:10;;;;;;;4.00;2.58;;;11.90;74.30;;;;;;5056394;28;20369;-62
2023/05/04 04:49:37;;;;;;;3.72;2.63;;;12.00;74.40;;;;;;5056354;28;20052;-62
2023/05/04 04:52:03;;;;;;;3.28;2.40;;;12.20;74.30;;;;;;5055965;28;20458;-62
2023/05/04 04:54:30;;;;;;;3.67;2.58;;;12.20;74.10;;;;;;5055801;28;20383;-62
2023/05/04 04:56:56;;;;;;;4.40;2.78;;;12.30;73.80;;;;;;5055942;28;20381;-62
2023/05/04 04:59:23;;;;;;;6.18;3.00;;;12.40;73.70;;;;;;5056409;28;20025;-62
2023/05/04 05:01:49;;;;;;;4.63;2.83;;;12.60;73.60;;;;;;5056058;28;20101;-62
2023/05/04 05:04:17;;;;;;;6.65;3.17;;;12.80;73.80;;;;;;5056066;28;20247;-62
2023/05/04 05:06:43;;;;;;;5.43;2.92;;;13.00;73.30;;;;;;5056041;28;20021;-62
2023/05/04 05:09:09;;;;;;;7.40;3.75;;;13.30;73.00;;;;;;5055725;28;20343;-62
2023/05/04 05:11:35;;;;;;;8.77;4.20;;;13.90;73.40;;;;;;5055949;28;20028;-62
2023/05/04 05:14:01;;;;;;;9.55;3.97;;;15.10;73.20;;;;;;5055622;28;20062;-62
2023/05/04 05:16:27;;;;;;;7.28;3.42;;;16.50;71.40;;;;;;5056158;28;20017;-62
2023/05/04 05:18:53;;;;;;;6.38;3.20;;;17.90;69.40;;;;;;5056150;28;20103;-62
2023/05/04 05:21:19;;;;;;;5.57;3.08;;;19.30;67.00;;;;;;5055927;28;20354;-62
2023/05/04 05:23:45;;;;;;;4.97;3.28;;;20.80;63.90;;;;;;5056002;28;20032;-62
2023/05/04 05:26:11;;;;;;;4.40;2.80;;;22.10;61.20;;;;;;5055683;28;20083;-62
2023/05/04 05:28:38;;;;;;;2.83;2.40;;;23.40;58.40;;;;;;5055978;28;20450;-62
2023/05/04 05:31:03;;;;;;;2.45;2.08;;;24.00;56.20;;;;;;5055341;28;20454;-62
2023/05/04 05:33:29;;;;;;;4.35;2.15;;;24.10;54.60;;;;;;5054370;28;20035;-62
2023/05/04 05:35:55;;;;;;;2.83;1.65;;;24.50;54.10;;;;;;5055925;28;20029;-62
2023/05/04 05:38:21;;;;;;;4.45;2.13;;;25.40;53.30;;;;;;5055600;28;20107;-62
2023/05/04 05:40:48;;;;;;;2.45;1.83;;;26.20;51.70;;;;;;5055230;28;20092;-62
2023/05/04 05:43:16;;;;;;;3.85;1.95;;;26.80;50.30;;;;;;5055195;28;20029;-62
2023/05/04 05:45:42;;;;;;;2.15;1.83;;;27.60;49.20;;;;;;5055108;28;20053;-62
2023/05/04 05:48:08;;;;;;;2.63;1.73;;;28.50;47.90;;;;;;5055655;28;20036;-62
2023/05/04 05:50:34;;;;;;;2.13;1.92;;;29.40;46.20;;;;;;5055485;28;20342;-62
2023/05/04 05:53:00;;;;;;;4.32;2.10;;;30.10;44.30;;;;;;5055102;28;20039;-62
2023/05/04 05:55:26;;;;;;;3.55;2.05;;;30.90;43.60;;;;;;5054891;28;20056;-62
2023/05/04 05:57:53;;;;;;;5.85;2.20;;;31.70;42.80;;;;;;5055088;28;20107;-62
2023/05/04 06:00:19;;;;;;;3.55;2.30;;;32.50;41.40;;;;;;5055619;28;20029;-62
2023/05/04 06:02:45;;;;;;;2.42;1.92;;;33.30;40.10;;;;;;5055005;28;20043;-62
2023/05/04 06:05:11;;;;;;;3.35;2.08;;;33.40;38.70;;;;;;5055213;28;20025;-62
2023/05/04 06:07:37;;;;;;;4.15;2.13;;;32.80;38.60;;;;;;5055298;28;20035;-62
2023/05/04 06:10:03;;;;;;;3.45;2.00;;;31.80;38.70;;;;;;5054046;28;20024;-62
2023/05/04 06:12:29;;;;;;;3.22;2.20;;;30.80;39.40;;;;;;5054875;28;20058;-62
2023/05/04 06:14:55;;;;;;;5.30;2.30;;;30.10;40.00;;;;;;5055522;28;20385;-63
2023/05/04 06:17:21;;;;;;;3.13;2.22;;;30.10;40.70;;;;;;5055971;28;20032;-63
2023/05/04 06:19:49;;;;;;;3.45;2.10;;;31.00;40.80;;;;;;5054873;28;20108;-63
2023/05/04 06:22:16;;;;;;;5.00;2.30;;;32.10;40.00;;;;;;5054787;28;20029;-63
2023/05/04 06:24:42;;;;;;;3.47;1.98;;;32.90;38.70;;;;;;5055052;28;20151;-63
2023/05/04 06:27:08;;;;;;;3.58;2.00;;;32.80;38.20;;;;;;5053830;28;20460;-63
2023/05/04 06:29:37;;;;;;;4.03;2.72;;;32.80;38.20;;;;;;5054781;28;20071;-63
2023/05/04 06:32:03;;;;;;;3.92;2.70;;;33.50;38.00;;;;;;5054950;28;20033;-62
2023/05/04 06:34:29;;;;;;;4.82;2.70;;;34.40;37.10;;;;;;5055444;28;20339;-61
2023/05/04 06:36:55;;;;;;;4.25;2.60;;;35.40;36.00;;;;;;5055239;28;20025;-61
2023/05/04 06:39:21;;;;;;;2.25;2.05;;;36.50;34.90;;;;;;5055710;28;20087;-61
2023/05/04 06:41:47;;;;;;;2.40;2.20;;;37.40;33.80;;;;;;5054547;28;20029;-61
2023/05/04 06:44:13;;;;;;;2.55;2.35;;;38.30;32.50;;;;;;5054855;28;20031;-61
2023/05/04 06:46:39;;;;;;;3.33;2.60;;;39.00;31.40;;;;;;5054572;28;20025;-61
2023/05/04 06:49:05;;;;;;;3.30;1.95;;;39.60;30.40;;;;;;5054865;28;20104;-63
2023/05/04 06:51:34;;;;;;;3.13;2.40;;;40.00;29.40;;;;;;5054347;28;20518;-61
2023/05/04 06:54:00;;;;;;;5.18;2.42;;;40.40;28.50;;;;;;5054183;28;20469;-63
2023/05/04 06:56:26;;;;;;;4.72;2.58;;;40.60;27.80;;;;;;5054680;28;20037;-61
2023/05/04 06:58:52;;;;;;;2.15;1.90;;;40.40;27.70;;;;;;5056378;28;20473;-61
2023/05/04 07:01:18;;;;;;;2.55;2.08;;;39.40;28.00;;;;;;5073906;28;20500;-61
2023/05/04 07:03:44;;;;;;;3.95;1.80;;;38.10;28.80;;;;;;5058701;28;20047;-61
2023/05/04 07:06:10;;;;;;;5.28;1.98;;;36.50;30.10;;;;;;5058288;28;20037;-62
2023/05/04 07:08:36;;;;;;;2.10;1.83;;;34.90;31.40;;;;;;5058291;28;20044;-61
2023/05/04 07:11:02;;;;;;;2.85;2.03;;;33.40;33.30;;;;;;5057950;28;20075;-62
2023/05/04 07:13:28;;;;;;;1.88;1.70;;;32.20;34.60;;;;;;5057938;28;20438;-61
2023/05/04 07:15:54;;;;;;;1.90;1.70;;;31.20;35.90;;;;;;5057893;28;20036;-63
2023/05/04 07:18:21;;;;;;;2.25;1.77;;;30.40;36.40;;;;;;5057936;28;20036;-63
2023/05/04 07:20:47;;;;;;;2.45;1.92;;;29.70;37.70;;;;;;5058290;28;20039;-59
2023/05/04 07:23:13;;;;;;;2.33;1.98;;;29.20;38.70;;;;;;5057849;28;20100;-59
2023/05/04 07:25:39;;;;;;;2.45;2.00;;;28.80;39.10;;;;;;5057655;28;20025;-58
2023/05/04 07:28:04;;;;;;;2.55;1.85;;;28.50;39.90;;;;;;5058182;28;20079;-58
2023/05/04 07:30:31;;;;;;;3.80;2.08;;;28.20;40.40;;;;;;5057657;28;20021;-58
2023/05/04 07:32:57;;;;;;;5.60;2.47;;;28.00;41.00;;;;;;5057534;28;20370;-59
2023/05/04 07:35:23;;;;;;;5.53;2.67;;;27.90;41.30;;;;;;5057816;28;20108;-59
2023/05/04 07:37:49;;;;;;;7.20;2.83;;;27.80;41.20;;;;;;5057485;28;20457;-58
2023/05/04 07:40:19;;;;;;;3.58;2.40;;;27.70;41.40;;;;;;5057968;28;20033;-58
2023/05/04 07:42:45;;;;;;;3.58;2.30;;;27.50;42.00;;;;;;5057366;28;20040;-58
2023/05/04 07:45:11;;;;;;;2.13;2.00;;;27.50;42.20;;;;;;5054412;28;20108;-58
2023/05/04 07:47:36;;;;;;;3.92;2.17;;;27.40;41.70;;;;;;5057587;28;20178;-59
2023/05/04 07:50:03;;;;;;;2.72;1.88;;;27.40;42.20;;;;;;5057578;28;20107;-58
2023/05/04 07:52:29;;;;;;;5.30;2.60;;;27.30;42.30;;;;;;5057479;28;20048;-61
2023/05/04 07:54:55;;;;;;;3.58;2.90;;;27.30;42.40;;;;;;5056946;28;20099;-61
2023/05/04 07:57:21;;;;;;;2.92;2.60;;;27.20;42.30;;;;;;5057663;28;20021;-61
2023/05/04 07:59:47;;;;;;;69.43;13.88;;;27.10;42.30;;;;;;5056082;28;20117;-61
2023/05/04 08:02:13;;;;;;;8.07;4.00;;;27.00;42.50;;;;;;5057018;28;20053;-61
2023/05/04 08:04:45;;;;;;;9.43;4.15;;;26.90;42.20;;;;;;5056925;28;20032;-61
2023/05/04 08:07:14;;;;;;;48.90;10.60;;;26.90;42.30;;;;;;5057255;28;20016;-61
2023/05/04 08:09:40;;;;;;;13.70;4.65;;;26.90;42.80;;;;;;5056930;28;20025;-61
2023/05/04 08:12:06;;;;;;;31.40;7.85;;;26.90;42.70;;;;;;5057041;28;20044;-61
2023/05/04 08:14:32;;;;;;;10.30;3.80;;;26.90;42.50;;;;;;5057112;28;20017;-61
2023/05/04 08:16:59;;;;;;;7.72;3.88;;;26.80;42.40;;;;;;5057060;28;20035;-61
2023/05/04 08:19:25;;;;;;;6.90;3.67;;;26.70;42.30;;;;;;5056997;28;20037;-62
2023/05/04 08:21:51;;;;;;;4.30;3.15;;;26.70;42.40;;;;;;5056840;28;20021;-61
2023/05/04 08:24:17;;;;;;;4.93;3.38;;;26.70;42.40;;;;;;5056774;28;20025;-61
2023/05/04 08:26:43;;;;;;;5.22;3.47;;;26.60;42.30;;;;;;5057147;28;20079;-61
2023/05/04 08:29:09;;;;;;;6.35;3.42;;;26.50;42.20;;;;;;5056530;28;20354;-61
2023/05/04 08:31:35;;;;;;;5.97;3.45;;;26.50;42.10;;;;;;5056244;28;20017;-61
2023/05/04 08:34:02;;;;;;;4.80;3.58;;;26.40;42.30;;;;;;5056731;28;20048;-61
2023/05/04 08:36:28;;;;;;;4.13;3.53;;;26.40;42.10;;;;;;5055295;28;20029;-61
2023/05/04 08:38:54;;;;;;;4.35;3.40;;;26.40;42.40;;;;;;5055731;28;20041;-61
2023/05/04 08:41:24;;;;;;;4.35;3.40;;;26.40;42.50;;;;;;5056734;28;20070;-61
2023/05/04 08:43:51;;;;;;;4.97;3.50;;;26.30;42.50;;;;;;5056483;28;20025;-61
2023/05/04 08:46:17;;;;;;;3.38;3.08;;;26.30;42.50;;;;;;5055004;28;20054;-61
2023/05/04 08:48:43;;;;;;;4.68;3.55;;;26.20;42.30;;;;;;5056369;28;20070;-61
2023/05/04 08:51:10;;;;;;;4.10;3.20;;;26.10;42.50;;;;;;5056076;28;20346;-61
2023/05/04 08:53:39;;;;;;;4.35;3.30;;;26.00;42.30;;;;;;5055805;28;20101;-61
2023/05/04 08:56:12;;;;;;;4.82;3.40;;;26.00;42.50;;;;;;5055990;28;20021;-61
2023/05/04 08:58:47;;;;;;;3.90;3.20;;;25.90;42.40;;;;;;5055920;28;20358;-61
2023/05/04 09:01:14;;;;;;;4.28;3.30;;;25.90;42.20;;;;;;5056319;28;20454;-61
2023/05/04 09:03:41;;;;;;;4.22;3.03;;;25.90;42.40;;;;;;5056133;28;20041;-61
2023/05/04 09:06:08;;;;;;;4.35;2.72;;;25.90;42.50;;;;;;5055120;28;20017;-61
2023/05/04 09:08:34;;;;;;;3.72;3.10;;;25.80;42.40;;;;;;5055781;28;20072;-61
2023/05/04 09:11:01;;;;;;;3.97;3.17;;;25.80;42.50;;;;;;5056181;28;20024;-61
2023/05/04 09:13:27;;;;;;;3.88;3.38;;;25.70;42.60;;;;;;5055780;28;20060;-61
2023/05/04 09:15:57;;;;;;;4.38;3.60;;;25.70;42.80;;;;;;5055645;28;20069;-61
2023/05/04 09:18:34;;;;;;;3.70;3.30;;;25.70;42.60;;;;;;5056425;28;20133;-61
2023/05/04 09:21:00;;;;;;;3.83;3.28;;;25.60;42.60;;;;;;5055373;28;20063;-61
2023/05/04 09:23:26;;;;;;;3.47;3.03;;;25.60;42.80;;;;;;5055823;28;20056;-62
2023/05/04 09:25:54;;;;;;;6.60;3.80;;;25.60;42.40;;;;;;5055379;28;20512;-61
2023/05/04 09:28:40;;;;;;;4.78;3.80;;;25.40;42.50;;;;;;5055425;28;20032;-61
2023/05/04 09:31:06;;;;;;;3.83;3.30;;;25.40;42.20;;;;;;5055650;28;20017;-62
2023/05/04 09:33:33;;;;;;;4.85;3.35;;;25.40;43.10;;;;;;5055950;28;20029;-62
2023/05/04 09:36:15;;;;;;;3.75;3.35;;;25.40;43.10;;;;;;5055608;28;20513;-62
2023/05/04 09:38:41;;;;;;;4.45;3.20;;;25.40;43.00;;;;;;5055609;28;20036;-61
2023/05/04 09:41:07;;;;;;;6.78;3.75;;;25.50;43.30;;;;;;5055461;28;20032;-62
2023/05/04 09:43:41;;;;;;;3.58;3.03;;;25.50;43.20;;;;;;5055475;28;20025;-62
2023/05/04 09:46:16;;;;;;;4.72;3.40;;;25.50;43.30;;;;;;5055383;28;20021;-61
2023/05/04 09:48:52;;;;;;;4.53;2.90;;;25.50;42.90;;;;;;5055479;28;20063;-62
2023/05/04 09:51:21;;;;;;;4.82;3.20;;;25.60;43.10;;;;;;5055020;28;20342;-62
2023/05/04 09:53:49;;;;;;;3.58;3.05;;;25.60;43.30;;;;;;5054298;28;20048;-62
2023/05/04 09:56:49;;;;;;;5.68;3.28;;;25.70;43.40;;;;;;5070828;28;20025;-61
2023/05/04 09:59:16;;;;;;;3.58;3.05;;;25.70;42.70;;;;;;5055603;28;20108;-61
2023/05/04 10:01:43;;;;;;;4.15;2.95;;;25.70;43.10;;;;;;5055443;28;20082;-61
2023/05/04 10:04:09;;;;;;;3.20;2.90;;;25.60;42.00;;;;;;5055030;28;20096;-61
2023/05/04 10:06:36;;;;;;;4.50;3.20;;;25.40;41.50;;;;;;5055180;28;20499;-62
2023/05/04 10:09:02;;;;;;;2.80;2.50;;;25.30;42.10;;;;;;5054915;28;20022;-62
2023/05/04 10:11:29;;;;;;;4.63;3.53;;;25.20;42.30;;;;;;5054777;28;20033;-62
2023/05/04 10:13:56;;;;;;;3.97;2.80;;;25.20;42.10;;;;;;5054901;28;20028;-62
2023/05/04 10:16:50;;;;;;;3.67;2.75;;;25.10;42.70;;;;;;5054869;28;20060;-62
2023/05/04 10:19:16;;;;;;;4.13;3.20;;;25.10;42.70;;;;;;5055183;28;20035;-62
2023/05/04 10:22:26;;;;;;;3.83;3.03;;;25.20;43.00;;;;;;5055283;28;20036;-62
2023/05/04 10:25:23;;;;;;;4.30;2.90;;;25.20;42.60;;;;;;5054432;28;20021;-62
2023/05/04 10:27:55;;;;;;;4.00;3.03;;;25.30;42.70;;;;;;5052485;28;20116;-62
2023/05/04 10:30:22;;;;;;;2.72;2.50;;;25.30;42.70;;;;;;5055259;28;20095;-62
2023/05/04 10:32:56;;;;;;;3.53;2.90;;;25.20;42.70;;;;;;5057569;28;20025;-62
2023/05/04 10:35:22;;;;;;;3.28;2.97;;;25.20;42.60;;;;;;5058653;28;20104;-62
2023/05/04 10:37:55;;;;;;;3.83;2.80;;;25.20;42.30;;;;;;5058697;28;20044;-62
2023/05/04 10:40:37;;;;;;;3.25;2.90;;;25.20;42.20;;;;;;5058927;28;20032;-62
2023/05/04 10:43:03;;;;;;;4.30;2.70;;;25.10;42.20;;;;;;5058506;28;20031;-62
2023/05/04 10:45:39;;;;;;;3.88;3.28;;;25.00;42.40;;;;;;5058753;28;20119;-62
2023/05/04 10:48:07;;;;;;;2.80;2.50;;;25.00;42.50;;;;;;5059002;28;20048;-62
2023/05/04 10:50:43;;;;;;;4.35;3.38;;;25.00;42.60;;;;;;5058398;28;20082;-62
2023/05/04 10:53:10;;;;;;;3.97;3.17;;;25.10;42.50;;;;;;5058514;28;20032;-62
2023/05/04 10:55:41;;;;;;;4.30;3.60;;;25.00;42.50;;;;;;5058219;28;20262;-62
2023/05/04 10:58:10;;;;;;;3.97;3.38;;;24.90;42.60;;;;;;5058261;28;20029;-62
2023/05/04 11:00:36;;;;;;;6.15;4.30;;;24.90;42.90;;;;;;5058484;28;20112;-62
2023/05/04 11:03:03;;;;;;;5.53;4.00;;;24.90;42.90;;;;;;5058107;28;20025;-62
2023/05/04 11:05:46;;;;;;;5.82;3.40;;;24.80;42.80;;;;;;5058326;28;20071;-62
2023/05/04 11:08:20;;;;;;;4.90;3.55;;;24.70;43.10;;;;;;5058413;28;20021;-62
2023/05/04 11:10:47;;;;;;;4.72;3.58;;;24.80;43.70;;;;;;5057070;28;20024;-62
2023/05/04 11:13:17;;;;;;;5.03;3.67;;;24.80;43.80;;;;;;5057991;28;20113;-62
2023/05/04 11:15:47;;;;;;;6.00;3.83;;;24.80;43.50;;;;;;5057996;28;20035;-62
2023/05/04 11:18:13;;;;;;;4.88;3.60;;;24.70;43.50;;;;;;5057858;28;20373;-62
2023/05/04 11:20:41;;;;;;;4.63;2.85;;;24.80;43.80;;;;;;5058072;28;20037;-62
2023/05/04 11:23:09;;;;;;;3.50;3.17;;;24.80;44.00;;;;;;5056766;28;20507;-62
2023/05/04 11:25:36;;;;;;;4.15;3.30;;;24.80;43.90;;;;;;5057587;28;20124;-62
2023/05/04 11:28:02;;;;;;;3.42;2.80;;;24.90;43.70;;;;;;5058043;28;20040;-62
2023/05/04 11:30:33;;;;;;;3.67;2.85;;;24.90;43.60;;;;;;5058181;28;20434;-62
2023/05/04 11:33:00;;;;;;;3.88;2.60;;;24.90;43.50;;;;;;5057782;28;20441;-62
2023/05/04 11:35:26;;;;;;;3.28;2.90;;;24.90;43.50;;;;;;5057543;28;20454;-62
2023/05/04 11:37:52;;;;;;;3.35;2.80;;;24.90;43.40;;;;;;5057503;28;20035;-62
2023/05/04 11:40:22;;;;;;;3.55;2.90;;;25.00;43.50;;;;;;5057469;28;20032;-62
2023/05/04 11:42:50;;;;;;;3.60;3.28;;;25.10;43.50;;;;;;5057166;28;20037;-62
2023/05/04 11:45:31;;;;;;;3.92;3.22;;;25.20;43.30;;;;;;5057741;28;20025;-62
2023/05/04 11:47:58;;;;;;;3.50;2.85;;;25.20;43.00;;;;;;5058585;28;20040;-63
2023/05/04 11:50:26;;;;;;;3.92;3.05;;;25.20;42.90;;;;;;5058553;28;20055;-63
2023/05/04 11:53:05;;;;;;;3.92;2.75;;;25.10;42.90;;;;;;5057522;28;20029;-62
2023/05/04 11:55:31;;;;;;;3.60;3.00;;;25.00;42.80;;;;;;5057021;28;20063;-62
2023/05/04 11:58:05;;;;;;;5.65;3.55;;;25.00;42.60;;;;;;5057711;28;20076;-62
2023/05/04 12:00:40;;;;;;;4.10;3.30;;;24.90;42.70;;;;;;5057397;28;20435;-62
2023/05/04 12:03:14;;;;;;;3.28;2.75;;;24.90;42.50;;;;;;5056158;28;20047;-62
2023/05/04 12:05:50;;;;;;;3.95;3.20;;;24.90;43.10;;;;;;5057274;28;20021;-62
2023/05/04 12:08:32;;;;;;;3.55;3.05;;;24.90;43.10;;;;;;5057275;28;20104;-62
2023/05/04 12:11:14;;;;;;;5.13;3.38;;;25.00;43.30;;;;;;5056861;28;20052;-62
2023/05/04 12:13:42;;;;;;;4.22;3.00;;;25.10;43.30;;;;;;5056879;28;20108;-62
2023/05/04 12:16:10;;;;;;;3.90;3.50;;;25.20;43.60;;;;;;5056885;28;20048;-62
2023/05/04 12:18:36;;;;;;;4.57;3.33;;;25.20;43.80;;;;;;5057036;28;20028;-62
2023/05/04 12:21:10;;;;;;;5.78;3.50;;;25.30;43.90;;;;;;5056710;28;20029;-62
2023/05/04 12:23:37;;;;;;;4.88;3.50;;;25.40;43.90;;;;;;5055708;28;20033;-62
2023/05/04 12:26:03;;;;;;;5.43;3.28;;;25.40;43.90;;;;;;5056484;28;20021;-62
2023/05/04 12:28:29;;;;;;;3.47;3.17;;;25.50;43.60;;;;;;5057138;28;20021;-62
2023/05/04 12:30:55;;;;;;;5.03;3.40;;;25.60;43.50;;;;;;5056500;28;20021;-62
2023/05/04 12:33:22;;;;;;;4.47;3.50;;;25.60;43.50;;;;;;5056739;28;20353;-62
2023/05/04 12:35:48;;;;;;;5.03;3.70;;;25.70;43.50;;;;;;5055588;28;20021;-62
2023/05/04 12:38:14;;;;;;;4.22;3.08;;;25.70;43.40;;;;;;5056435;28;20068;-62
2023/05/04 12:40:42;;;;;;;5.07;3.50;;;25.80;43.50;;;;;;5056615;28;20029;-62
2023/05/04 12:43:09;;;;;;;4.70;3.42;;;25.90;43.40;;;;;;5056194;28;20040;-62
2023/05/04 12:45:35;;;;;;;4.35;3.50;;;25.90;43.20;;;;;;5056403;28;20048;-62
2023/05/04 12:48:02;;;;;;;4.18;3.58;;;25.90;43.00;;;;;;5056727;28;20033;-62
2023/05/04 12:50:28;;;;;;;4.40;3.60;;;25.90;43.20;;;;;;5055187;28;20079;-62